createdAt,value
2019-02-18T00:00:41.793Z,26.70
2019-02-18T00:03:11.637Z,27.70
2019-02-18T00:05:40.353Z,25.82
2019-02-18T00:08:10.081Z,26.90
2019-02-18T00:10:38.878Z,23.45
2019-02-18T00:13:07.640Z,28.20
2019-02-18T00:15:36.361Z,24.30
2019-02-18T00:18:05.089Z,24.72
2019-02-18T00:20:33.761Z,25.37
2019-02-18T00:23:02.536Z,24.87
2019-02-18T00:25:31.243Z,27.50
2019-02-18T00:27:59.912Z,24.37
2019-02-18T00:30:28.665Z,23.22
2019-02-18T00:32:57.409Z,27.60
2019-02-18T00:35:26.104Z,25.25
2019-02-18T00:37:54.765Z,25.77
2019-02-18T00:40:23.562Z,24.98
2019-02-18T00:42:52.331Z,26.95
2019-02-18T00:45:20.988Z,23.10
2019-02-18T00:47:49.685Z,24.10
2019-02-18T00:50:18.363Z,23.87
2019-02-18T00:52:47.128Z,26.23
2019-02-18T00:55:15.793Z,22.77
2019-02-18T00:57:44.511Z,21.42
2019-02-18T01:00:13.660Z,24.10
2019-02-18T01:02:43.408Z,25.17
2019-02-18T01:05:12.141Z,23.80
2019-02-18T01:07:40.793Z,24.67
2019-02-18T01:10:09.661Z,22.87
2019-02-18T01:12:38.398Z,24.37
2019-02-18T01:15:08.064Z,22.55
2019-02-18T01:17:36.701Z,24.98
2019-02-18T01:20:06.067Z,24.35
2019-02-18T01:22:34.731Z,24.45
2019-02-18T01:25:03.375Z,23.65
2019-02-18T01:27:32.111Z,26.82
2019-02-18T01:30:00.863Z,25.70
2019-02-18T01:32:29.538Z,26.95
2019-02-18T01:34:58.171Z,25.02
2019-02-18T01:37:26.846Z,20.60
2019-02-18T01:39:55.509Z,22.85
2019-02-18T01:42:24.186Z,22.40
2019-02-18T01:44:52.918Z,19.48
2019-02-18T01:47:21.669Z,20.70
2019-02-18T01:49:50.399Z,26.07
2019-02-18T01:52:19.124Z,22.80
2019-02-18T01:54:47.859Z,23.25
2019-02-18T01:57:16.512Z,22.93
2019-02-18T01:59:45.449Z,22.17
2019-02-18T02:02:14.106Z,24.52
2019-02-18T02:04:42.841Z,21.95
2019-02-18T02:07:11.506Z,22.40
2019-02-18T02:09:40.170Z,20.52
2019-02-18T02:12:08.903Z,26.87
2019-02-18T02:14:37.586Z,20.85
2019-02-18T02:17:07.217Z,22.93
2019-02-18T02:19:37.354Z,20.60
2019-02-18T02:22:06.002Z,20.77
2019-02-18T02:24:34.670Z,22.80
2019-02-18T02:27:03.363Z,22.52
2019-02-18T02:29:32.987Z,23.87
2019-02-18T02:32:01.724Z,24.37
2019-02-18T02:34:30.385Z,22.95
2019-02-18T02:36:59.189Z,20.68
2019-02-18T02:39:27.866Z,21.90
2019-02-18T02:41:56.598Z,19.92
2019-02-18T02:44:25.266Z,21.52
2019-02-18T02:46:53.952Z,21.10
2019-02-18T02:49:22.680Z,19.82
2019-02-18T02:51:51.410Z,19.27
2019-02-18T02:54:20.075Z,22.32
2019-02-18T02:56:48.728Z,21.82
2019-02-18T02:59:17.415Z,21.55
2019-02-18T03:01:46.132Z,23.07
2019-02-18T03:04:14.807Z,22.27
2019-02-18T03:06:43.534Z,21.62
2019-02-18T03:09:13.281Z,22.07
2019-02-18T03:11:41.959Z,21.80
2019-02-18T03:14:10.716Z,24.30
2019-02-18T03:16:39.359Z,22.87
2019-02-18T03:19:08.068Z,21.77
2019-02-18T03:21:36.788Z,20.27
2019-02-18T03:24:06.621Z,21.80
2019-02-18T03:26:35.337Z,22.83
2019-02-18T03:29:25.998Z,22.52
2019-02-18T03:31:54.662Z,22.37
2019-02-18T03:34:25.474Z,22.30
2019-02-18T03:36:54.209Z,22.40
2019-02-18T03:39:22.900Z,21.33
2019-02-18T03:41:51.578Z,20.88
2019-02-18T03:44:20.215Z,22.33
2019-02-18T03:46:50.736Z,21.52
2019-02-18T03:49:19.243Z,20.92
2019-02-18T03:51:47.960Z,22.43
2019-02-18T03:54:16.624Z,21.43
2019-02-18T03:56:45.304Z,20.20
2019-02-18T03:59:13.964Z,23.35
2019-02-18T04:01:42.620Z,21.57
2019-02-18T04:04:11.362Z,24.20
2019-02-18T04:06:40.030Z,21.20
2019-02-18T04:09:08.743Z,20.88
2019-02-18T04:11:37.479Z,20.47
2019-02-18T04:14:06.166Z,20.93
2019-02-18T04:16:34.830Z,20.52
2019-02-18T04:19:03.508Z,22.27
2019-02-18T04:21:32.171Z,23.45
2019-02-18T04:24:00.972Z,19.55
2019-02-18T04:26:29.640Z,20.60
2019-02-18T04:28:58.300Z,23.98
2019-02-18T04:31:27.044Z,18.97
2019-02-18T04:33:55.754Z,21.07
2019-02-18T04:36:24.423Z,19.93
2019-02-18T04:38:54.355Z,21.40
2019-02-18T04:41:23.238Z,19.53
2019-02-18T04:43:51.898Z,23.20
2019-02-18T04:46:20.576Z,21.73
2019-02-18T04:48:49.235Z,19.73
2019-02-18T04:51:17.909Z,20.43
2019-02-18T04:53:46.659Z,23.13
2019-02-18T04:56:15.345Z,22.70
2019-02-18T04:58:44.034Z,19.37
2019-02-18T05:01:12.814Z,20.68
2019-02-18T05:03:41.476Z,20.07
2019-02-18T05:06:10.208Z,22.32
2019-02-18T05:08:38.936Z,24.07
2019-02-18T05:11:07.660Z,22.63
2019-02-18T05:13:36.332Z,20.70
2019-02-18T05:16:05.019Z,19.27
2019-02-18T05:18:33.747Z,18.50
2019-02-18T05:21:02.502Z,22.67
2019-02-18T05:23:31.397Z,22.20
2019-02-18T05:26:00.205Z,20.60
2019-02-18T05:28:28.944Z,19.07
2019-02-18T05:30:57.673Z,20.95
2019-02-18T05:33:26.304Z,22.37
2019-02-18T05:35:55.908Z,23.22
2019-02-18T05:38:24.877Z,25.13
2019-02-18T05:40:53.582Z,21.17
2019-02-18T05:43:22.234Z,20.40
2019-02-18T05:45:51.001Z,19.50
2019-02-18T05:48:19.684Z,19.93
2019-02-18T05:50:48.420Z,21.50
2019-02-18T05:53:17.116Z,20.67
2019-02-18T05:55:45.883Z,21.93
2019-02-18T05:58:14.562Z,20.73
2019-02-18T06:00:43.292Z,21.10
2019-02-18T06:03:12.032Z,22.87
2019-02-18T06:05:40.789Z,20.43
2019-02-18T06:08:09.539Z,20.20
2019-02-18T06:10:39.162Z,19.05
2019-02-18T06:13:07.849Z,17.90
2019-02-18T06:15:36.573Z,20.57
2019-02-18T06:18:05.318Z,16.73
2019-02-18T06:20:34.035Z,19.95
2019-02-18T06:23:02.803Z,18.00
2019-02-18T06:25:31.538Z,21.45
2019-02-18T06:28:00.238Z,20.60
2019-02-18T06:30:28.882Z,21.80
2019-02-18T06:32:57.583Z,19.05
2019-02-18T06:35:26.272Z,21.02
2019-02-18T06:37:54.947Z,21.63
2019-02-18T06:40:23.702Z,20.65
2019-02-18T06:42:52.379Z,19.70
2019-02-18T06:45:40.124Z,18.87
2019-02-18T06:48:30.825Z,19.00
2019-02-18T06:50:59.508Z,17.03
2019-02-18T06:53:28.220Z,18.27
2019-02-18T06:55:56.895Z,20.82
2019-02-18T06:58:44.546Z,17.73
2019-02-18T07:01:44.636Z,19.30
2019-02-18T07:04:28.449Z,19.85
2019-02-18T07:07:25.250Z,16.60
2019-02-18T07:10:12.986Z,21.87
2019-02-18T07:12:48.144Z,17.20
2019-02-18T07:15:16.897Z,19.17
2019-02-18T07:17:45.614Z,15.87
2019-02-18T07:20:14.331Z,20.88
2019-02-18T07:22:43.013Z,18.50
2019-02-18T07:25:12.554Z,18.85
2019-02-18T07:27:41.212Z,20.92
2019-02-18T07:30:13.937Z,20.48
2019-02-18T07:32:42.614Z,17.80
2019-02-18T07:35:11.277Z,17.57
2019-02-18T07:37:41.018Z,17.55
2019-02-18T07:40:10.089Z,19.42
2019-02-18T07:42:38.814Z,21.82
2019-02-18T07:45:07.906Z,18.30
2019-02-18T07:47:36.633Z,21.00
2019-02-18T07:50:06.072Z,21.90
2019-02-18T07:52:34.785Z,18.67
2019-02-18T07:55:03.586Z,22.70
2019-02-18T07:57:32.282Z,18.75
2019-02-18T08:00:00.948Z,21.13
2019-02-18T08:02:29.659Z,18.35
2019-02-18T08:04:58.382Z,20.55
2019-02-18T08:07:27.145Z,19.73
2019-02-18T08:09:55.866Z,19.17
2019-02-18T08:12:24.546Z,20.85
2019-02-18T08:14:53.230Z,19.17
2019-02-18T08:17:21.941Z,20.30
2019-02-18T08:19:50.616Z,18.70
2019-02-18T08:22:19.345Z,18.83
2019-02-18T08:24:48.034Z,23.07
2019-02-18T08:27:16.717Z,21.90
2019-02-18T08:29:45.469Z,21.77
2019-02-18T08:32:14.228Z,19.50
2019-02-18T08:34:42.913Z,22.10
2019-02-18T08:37:11.617Z,22.53
2019-02-18T08:39:40.545Z,20.82
2019-02-18T08:42:09.231Z,22.77
2019-02-18T08:44:37.959Z,21.27
2019-02-18T08:47:07.705Z,19.67
2019-02-18T08:49:36.423Z,23.83
2019-02-18T08:52:05.100Z,21.30
2019-02-18T08:54:33.824Z,26.62
2019-02-18T08:57:02.675Z,24.18
2019-02-18T08:59:31.348Z,22.05
2019-02-18T09:02:00.138Z,21.10
2019-02-18T09:04:28.980Z,21.53
2019-02-18T09:06:57.745Z,19.75
2019-02-18T09:09:26.511Z,23.32
2019-02-18T09:11:55.260Z,22.07
2019-02-18T09:14:25.041Z,26.20
2019-02-18T09:16:53.778Z,24.82
2019-02-18T09:19:22.620Z,23.13
2019-02-18T09:21:58.319Z,22.45
2019-02-18T09:24:31.738Z,19.25
2019-02-18T09:27:00.597Z,22.20
2019-02-18T09:29:29.460Z,21.33
2019-02-18T09:31:58.328Z,24.10
2019-02-18T09:34:27.106Z,26.27
2019-02-18T09:36:56.286Z,20.88
2019-02-18T09:39:31.257Z,22.73
2019-02-18T09:41:55.802Z,20.27
2019-02-18T09:44:24.621Z,18.93
2019-02-18T09:46:53.263Z,21.80
2019-02-18T09:49:22.111Z,20.52
2019-02-18T09:51:52.060Z,19.48
2019-02-18T09:54:20.924Z,21.77
2019-02-18T09:56:49.726Z,21.65
2019-02-18T09:59:18.468Z,19.37
2019-02-18T10:01:47.144Z,20.77
2019-02-18T10:04:15.853Z,19.17
2019-02-18T10:06:44.599Z,22.90
2019-02-18T10:09:13.259Z,21.53
2019-02-18T10:11:41.947Z,20.57
2019-02-18T10:14:11.711Z,21.52
2019-02-18T10:16:40.579Z,23.37
2019-02-18T10:19:09.306Z,20.60
2019-02-18T10:21:38.043Z,22.00
2019-02-18T10:24:06.909Z,22.25
2019-02-18T10:26:35.680Z,17.92
2019-02-18T10:29:04.405Z,24.70
2019-02-18T10:31:33.187Z,23.80
2019-02-18T10:34:02.000Z,19.73
2019-02-18T10:36:30.830Z,20.53
2019-02-18T10:38:59.508Z,20.75
2019-02-18T10:41:28.333Z,19.57
2019-02-18T10:43:57.020Z,20.23
2019-02-18T10:46:25.823Z,20.03
2019-02-18T10:48:54.877Z,19.97
2019-02-18T10:51:23.667Z,22.73
2019-02-18T10:53:52.468Z,21.47
2019-02-18T10:56:21.342Z,24.03
2019-02-18T10:58:50.043Z,21.03
2019-02-18T11:01:18.794Z,22.55
2019-02-18T11:03:47.589Z,23.22
2019-02-18T11:06:16.395Z,27.90
2019-02-18T11:08:45.368Z,23.07
2019-02-18T11:11:16.977Z,25.35
2019-02-18T11:13:44.690Z,24.45
2019-02-18T11:16:13.545Z,23.00
2019-02-18T11:18:42.464Z,25.32
2019-02-18T11:21:11.452Z,22.35
2019-02-18T11:23:40.209Z,25.80
2019-02-18T11:26:09.111Z,22.33
2019-02-18T11:28:37.943Z,20.85
2019-02-18T11:31:06.790Z,18.30
2019-02-18T11:33:35.537Z,24.50
2019-02-18T11:36:04.245Z,19.57
2019-02-18T11:38:34.123Z,22.97
2019-02-18T11:41:02.960Z,21.15
2019-02-18T11:43:31.742Z,19.05
2019-02-18T11:46:00.611Z,19.05
2019-02-18T11:48:29.372Z,16.48
2019-02-18T11:50:58.098Z,18.13
2019-02-18T11:53:26.767Z,21.85
2019-02-18T11:55:55.547Z,22.55
2019-02-18T11:58:24.214Z,22.02
2019-02-18T12:00:52.946Z,20.43
2019-02-18T12:03:21.781Z,21.87
2019-02-18T12:05:50.562Z,22.10
2019-02-18T12:08:19.286Z,23.42
2019-02-18T12:10:48.031Z,23.70
2019-02-18T12:13:16.762Z,18.67
2019-02-18T12:15:45.527Z,26.95
2019-02-18T12:18:14.435Z,18.23
2019-02-18T12:20:43.447Z,20.70
2019-02-18T12:23:12.412Z,19.63
2019-02-18T12:25:41.198Z,19.25
2019-02-18T12:28:10.111Z,17.60
2019-02-18T12:30:38.897Z,19.45
2019-02-18T12:33:07.555Z,22.13
2019-02-18T12:35:36.384Z,22.52
2019-02-18T12:38:05.328Z,20.33
2019-02-18T12:40:34.100Z,26.90
2019-02-18T12:43:02.839Z,22.00
2019-02-18T12:45:31.606Z,23.20
2019-02-18T12:48:00.384Z,19.82
2019-02-18T12:50:29.115Z,20.88
2019-02-18T12:52:58.147Z,28.67
2019-02-18T12:55:27.201Z,21.65
2019-02-18T12:57:56.033Z,23.57
2019-02-18T13:00:24.791Z,25.23
2019-02-18T13:02:53.648Z,23.50
2019-02-18T13:05:22.923Z,20.43
2019-02-18T13:07:51.698Z,22.02
2019-02-18T13:10:20.724Z,22.57
2019-02-18T13:12:49.483Z,27.93
2019-02-18T13:15:18.240Z,25.35
2019-02-18T13:17:46.992Z,23.52
2019-02-18T13:20:18.047Z,26.07
2019-02-18T13:22:46.818Z,24.72
2019-02-18T13:25:15.541Z,22.45
2019-02-18T13:27:45.747Z,26.10
2019-02-18T13:30:14.983Z,27.22
2019-02-18T13:32:44.201Z,25.10
2019-02-18T13:35:12.946Z,24.05
2019-02-18T13:37:41.738Z,24.67
2019-02-18T13:40:10.932Z,25.68
2019-02-18T13:42:39.621Z,31.37
2019-02-18T13:45:08.371Z,24.80
2019-02-18T13:47:37.131Z,24.25
2019-02-18T13:50:06.191Z,29.20
2019-02-18T13:52:34.930Z,23.18
2019-02-18T13:55:03.842Z,28.00
2019-02-18T13:57:32.862Z,28.55
2019-02-18T14:00:02.070Z,27.98
2019-02-18T14:02:32.625Z,24.18
2019-02-18T14:05:01.377Z,25.88
2019-02-18T14:07:30.117Z,25.77
2019-02-18T14:09:58.842Z,26.30
2019-02-18T14:12:27.581Z,28.07
2019-02-18T14:14:56.525Z,28.23
2019-02-18T14:17:25.299Z,24.67
2019-02-18T14:19:54.107Z,24.57
2019-02-18T14:22:22.852Z,24.60
2019-02-18T14:24:51.699Z,23.55
2019-02-18T14:27:20.518Z,20.20
2019-02-18T14:29:49.584Z,22.15
2019-02-18T14:32:18.508Z,24.00
2019-02-18T14:34:47.242Z,24.67
2019-02-18T14:37:15.993Z,22.93
2019-02-18T14:39:44.811Z,20.95
2019-02-18T14:42:13.582Z,22.77
2019-02-18T14:44:42.917Z,23.07
2019-02-18T14:47:11.679Z,23.85
2019-02-18T14:49:40.422Z,24.00
2019-02-18T14:52:09.342Z,24.40
2019-02-18T14:54:38.180Z,23.38
2019-02-18T14:57:07.060Z,24.00
2019-02-18T14:59:35.803Z,22.65
2019-02-18T15:02:04.660Z,24.47
2019-02-18T15:04:33.461Z,22.90
2019-02-18T15:07:02.187Z,21.87
2019-02-18T15:09:30.908Z,23.12
2019-02-18T15:11:59.675Z,22.05
2019-02-18T15:14:28.402Z,23.87
2019-02-18T15:16:57.416Z,26.23
2019-02-18T15:19:26.206Z,23.92
2019-02-18T15:21:54.974Z,23.05
2019-02-18T15:24:23.769Z,24.20
2019-02-18T15:26:52.648Z,22.98
2019-02-18T15:29:21.434Z,24.12
2019-02-18T15:31:50.547Z,23.57
2019-02-18T15:34:19.310Z,21.70
2019-02-18T15:36:48.139Z,22.73
2019-02-18T15:39:16.966Z,24.15
2019-02-18T15:41:45.746Z,22.22
2019-02-18T15:44:14.635Z,25.92
2019-02-18T15:46:43.681Z,23.57
2019-02-18T15:49:12.494Z,24.80
2019-02-18T15:51:41.376Z,25.12
2019-02-18T15:54:10.423Z,22.85
2019-02-18T15:56:39.262Z,20.82
2019-02-18T15:59:08.071Z,24.75
2019-02-18T16:01:37.416Z,19.85
2019-02-18T16:04:06.195Z,22.62
2019-02-18T16:06:35.005Z,24.12
2019-02-18T16:09:05.642Z,22.40
2019-02-18T16:11:34.423Z,22.67
2019-02-18T16:14:03.182Z,22.58
2019-02-18T16:16:32.245Z,23.55
2019-02-18T16:19:01.158Z,19.02
2019-02-18T16:21:29.920Z,21.35
2019-02-18T16:23:58.740Z,25.70
2019-02-18T16:26:27.587Z,23.35
2019-02-18T16:28:56.388Z,26.75
2019-02-18T16:31:25.229Z,24.63
2019-02-18T16:33:53.978Z,24.67
2019-02-18T16:36:22.819Z,25.85
2019-02-18T16:38:51.882Z,18.62
2019-02-18T16:41:20.627Z,22.73
2019-02-18T16:43:51.336Z,19.95
2019-02-18T16:46:20.096Z,21.35
2019-02-18T16:48:49.178Z,22.58
2019-02-18T16:51:19.782Z,25.13
2019-02-18T16:53:48.656Z,23.18
2019-02-18T16:56:17.505Z,21.95
2019-02-18T16:58:46.333Z,22.90
2019-02-18T17:01:15.133Z,22.98
2019-02-18T17:03:44.032Z,24.77
2019-02-18T17:06:12.829Z,23.20
2019-02-18T17:08:41.609Z,21.00
2019-02-18T17:11:10.418Z,24.40
2019-02-18T17:13:39.231Z,22.62
2019-02-18T17:16:08.015Z,23.27
2019-02-18T17:18:37.048Z,22.75
2019-02-18T17:21:06.050Z,21.73
2019-02-18T17:23:34.739Z,23.40
2019-02-18T17:26:03.519Z,21.90
2019-02-18T17:28:32.600Z,23.50
2019-02-18T17:31:01.436Z,23.73
2019-02-18T17:33:30.436Z,24.90
2019-02-18T17:35:59.254Z,26.07
2019-02-18T17:38:28.124Z,26.45
2019-02-18T17:40:57.173Z,26.80
2019-02-18T17:43:26.431Z,25.10
2019-02-18T17:45:55.304Z,24.50
2019-02-18T17:48:24.301Z,24.57
2019-02-18T17:50:53.006Z,24.85
2019-02-18T17:53:21.841Z,22.45
2019-02-18T17:55:50.678Z,23.32
2019-02-18T17:58:19.523Z,19.98
2019-02-18T18:00:50.391Z,18.10
2019-02-18T18:03:19.222Z,22.13
2019-02-18T18:05:48.185Z,21.85
2019-02-18T18:08:17.081Z,24.32
2019-02-18T18:10:45.889Z,29.65
2019-02-18T18:13:14.748Z,42.75
2019-02-18T18:15:43.656Z,51.60
2019-02-18T18:18:12.447Z,44.67
2019-02-18T18:20:41.772Z,55.48
2019-02-18T18:23:10.638Z,51.53
2019-02-18T18:25:39.512Z,60.25
2019-02-18T18:28:08.285Z,79.12
2019-02-18T18:30:37.254Z,54.15
2019-02-18T18:33:06.069Z,44.42
2019-02-18T18:35:35.216Z,34.83
2019-02-18T18:38:04.246Z,28.60
2019-02-18T18:40:33.253Z,32.25
2019-02-18T18:43:02.304Z,26.85
2019-02-18T18:45:31.442Z,27.60
2019-02-18T18:48:01.483Z,24.98
2019-02-18T18:50:30.746Z,22.60
2019-02-18T18:52:59.803Z,26.23
2019-02-18T18:55:28.890Z,21.02
2019-02-18T18:57:57.736Z,22.80
2019-02-18T19:00:26.531Z,22.67
2019-02-18T19:02:55.402Z,22.55
2019-02-18T19:05:24.110Z,19.07
2019-02-18T19:07:52.873Z,21.77
2019-02-18T19:10:21.775Z,21.33
2019-02-18T19:12:50.569Z,23.20
2019-02-18T19:15:20.476Z,22.53
2019-02-18T19:17:49.274Z,22.77
2019-02-18T19:20:18.164Z,23.32
2019-02-18T19:22:47.011Z,21.97
2019-02-18T19:25:15.786Z,22.05
2019-02-18T19:27:44.628Z,21.52
2019-02-18T19:30:14.582Z,23.25
2019-02-18T19:32:43.361Z,23.45
2019-02-18T19:35:12.122Z,22.93
2019-02-18T19:37:41.026Z,27.52
2019-02-18T19:40:10.711Z,25.82
2019-02-18T19:42:39.858Z,24.52
2019-02-18T19:45:10.017Z,25.52
2019-02-18T19:47:39.273Z,24.43
2019-02-18T19:50:08.148Z,21.68
2019-02-18T19:52:36.964Z,21.12
2019-02-18T19:55:08.984Z,22.02
2019-02-18T19:57:37.822Z,27.80
2019-02-18T20:00:08.214Z,21.30
2019-02-18T20:02:37.763Z,22.85
2019-02-18T20:05:06.654Z,24.77
2019-02-18T20:07:35.464Z,21.68
2019-02-18T20:10:04.332Z,20.48
2019-02-18T20:12:33.109Z,22.42
2019-02-18T20:15:02.076Z,21.62
2019-02-18T20:17:32.636Z,21.97
2019-02-18T20:20:01.558Z,21.12
2019-02-18T20:22:30.784Z,21.87
2019-02-18T20:24:59.736Z,20.32
2019-02-18T20:27:28.736Z,21.75
2019-02-18T20:29:58.296Z,22.48
2019-02-18T20:32:27.611Z,25.80
2019-02-18T20:34:56.633Z,21.93
2019-02-18T20:37:25.461Z,23.80
2019-02-18T20:39:54.267Z,21.40
2019-02-18T20:42:23.261Z,24.37
2019-02-18T20:44:54.279Z,20.97
2019-02-18T20:47:23.020Z,21.77
2019-02-18T20:49:51.935Z,20.75
2019-02-18T20:52:20.736Z,21.42
2019-02-18T20:54:50.694Z,22.22
2019-02-18T20:57:19.478Z,21.33
2019-02-18T20:59:48.306Z,22.65
2019-02-18T21:02:18.369Z,23.30
2019-02-18T21:04:47.823Z,22.37
2019-02-18T21:07:16.681Z,19.85
2019-02-18T21:09:45.451Z,22.30
2019-02-18T21:12:19.987Z,22.00
2019-02-18T21:14:45.239Z,21.55
2019-02-18T21:17:14.083Z,22.70
2019-02-18T21:19:42.835Z,21.23
2019-02-18T21:22:11.592Z,23.50
2019-02-18T21:24:40.427Z,20.65
2019-02-18T21:27:09.998Z,20.68
2019-02-18T21:29:39.044Z,21.23
2019-02-18T21:32:07.979Z,22.87
2019-02-18T21:34:37.031Z,23.02
2019-02-18T21:37:05.821Z,23.07
2019-02-18T21:39:34.594Z,22.58
2019-02-18T21:42:03.442Z,21.33
2019-02-18T21:44:32.248Z,22.32
2019-02-18T21:47:01.983Z,20.85
2019-02-18T21:49:30.726Z,22.75
2019-02-18T21:52:02.145Z,21.23
2019-02-18T21:54:31.870Z,22.00
2019-02-18T21:57:00.712Z,21.40
2019-02-18T21:59:31.006Z,21.20
2019-02-18T22:01:59.769Z,22.13
2019-02-18T22:04:28.617Z,21.60
2019-02-18T22:06:57.494Z,20.35
2019-02-18T22:09:26.286Z,20.82
2019-02-18T22:11:55.027Z,19.90
2019-02-18T22:14:23.891Z,21.57
2019-02-18T22:16:52.575Z,23.55
2019-02-18T22:19:22.354Z,21.50
2019-02-18T22:21:51.109Z,19.55
2019-02-18T22:24:19.953Z,25.50
2019-02-18T22:26:48.784Z,22.87
2019-02-18T22:29:17.557Z,23.83
2019-02-18T22:31:46.816Z,18.87
2019-02-18T22:34:15.577Z,18.10
2019-02-18T22:36:44.355Z,21.42
2019-02-18T22:39:13.165Z,19.80
2019-02-18T22:41:44.128Z,20.15
2019-02-18T22:44:13.108Z,20.35
2019-02-18T22:46:41.980Z,19.98
2019-02-18T22:49:10.843Z,21.93
2019-02-18T22:51:39.663Z,21.73
2019-02-18T22:54:08.419Z,18.45
2019-02-18T22:56:37.140Z,20.30
2019-02-18T22:59:05.914Z,18.17
2019-02-18T23:01:35.151Z,18.82
2019-02-18T23:04:04.702Z,20.90
2019-02-18T23:06:33.451Z,21.82
2019-02-18T23:09:02.202Z,19.90
2019-02-18T23:11:30.939Z,22.80
2019-02-18T23:13:59.723Z,20.50
2019-02-18T23:16:28.463Z,19.65
2019-02-18T23:18:57.204Z,19.57
2019-02-18T23:21:26.201Z,19.45
2019-02-18T23:23:54.889Z,20.68
2019-02-18T23:26:23.617Z,22.42
2019-02-18T23:28:52.376Z,20.23
2019-02-18T23:31:21.258Z,18.70
2019-02-18T23:33:49.967Z,23.62
2019-02-18T23:36:18.706Z,19.37
2019-02-18T23:38:47.410Z,17.30
2019-02-18T23:41:16.130Z,19.75
2019-02-18T23:43:44.887Z,21.17
2019-02-18T23:46:13.623Z,18.87
2019-02-18T23:48:42.269Z,20.40
2019-02-18T23:51:11.004Z,17.90
2019-02-18T23:53:39.707Z,24.00
2019-02-18T23:56:08.471Z,19.23
2019-02-18T23:58:37.144Z,20.37
